Архив погоды в Бикине

Метеограмма Бикин
Четверг, 25 Апреля
Время местн. Темп Ветер Видим Явления Облачность нижн/средн/верх Атм. давл. Влжн Точка росы ВНГО R Сост. почвы Tg s
Напр Скр Прв ур.ст ур.м изм
07:00 -0.5° В 1 - 20 км - облачно с прояснениями 753 760 +0.8 83% -3° 1 км 0 Замерзшая - -
04:00 -0.7° штиль 0 - 10 км - ясно 753 759 +0.1 75% -4.6° более 2.5 км - - - -
01:00 штиль 0 - 10 км - ясно 753 759 +0.5 69% -5° более 2.5 км - - - -
Среда, 24 Апреля
Время местн. Темп Ветер Видим Явления Облачность нижн/средн/верх Атм. давл. Влжн Точка росы ВНГО R Сост. почвы Tg s
Напр Скр Прв ур.ст ур.м изм
22:00 +5.5° штиль 0 - 10 км - переменная облачность 752 758 +0.9 48% -4.5° более 2.5 км - - - -
19:00 +10.6° С 4 10 20 км - переменная облачность 751 757 +0.5 35% -4.1° 1 км 0 - - -
16:00 +14° З 2 10 10 км видимость ухудшена из-за дыма облачно 751 757 -0.7 12% -14.6° более 2.5 км - - - -
13:00 +11.6° З,С-З 3 - 4 км видимость ухудшена из-за дыма облачно 751 757 +0.2 16% -13° 1 км - - - -
10:00 +9.8° З,Ю-З 1 - 10 км - облачно 751 757 +0.3 69% +4.4° 1 км - - - -
04:00 +6.1° В 1 - 10 км - облачно 751 757 +1.1 85% +3.7° - - - - -
01:00 +10.4° С,С-З 2 - 10 км - облачно с прояснениями 749 756 +1.8 76% +6.3° - - - - -
Вторник, 23 Апреля
Время местн. Темп Ветер Видим Явления Облачность нижн/средн/верх Атм. давл. Влжн Точка росы ВНГО R Сост. почвы Tg s
Напр Скр Прв ур.ст ур.м изм
22:00 +12.5° штиль 0 - 10 км - облачно 748 754 +1.2 70% +7.2° более 2.5 км - - - -
19:00 +18.1° Ю-З 2 - 20 км - преимущественно облачно 746 752 -0.4 49% +7.1° 1 км 0 - - -
16:00 +18.5° Ю 4 - 50 км - переменная облачность 747 753 -0.7 43% +5.6° более 2.5 км - - - -
13:00 +15° Ю 3 10 20 км - облачно 748 753 -1.6 48% +4.1° 1 км - - - -
10:00 +9.1° Ю-В 5 13 20 км небо без изменений {дождь} облачно 749 755 -1.9 69% +3.8° 1 км - - - -
07:00 +5.9° Ю,Ю-В 7 12 10 км слабый дождь с перерывами облачно 751 757 -1.4 72% +1.2° 1 км 0.2 Влажная (без луж) - -
04:00 +9.3° Ю-В 4 - 10 км - облачно 752 759 -1.4 20% -12.4° - - - - -
01:00 +8.6° Ю-В 2 - 20 км - облачно 754 760 -1.1 25% -10.2° более 2.5 км - - - -
Понедельник, 22 Апреля
Время местн. Темп Ветер Видим Явления Облачность нижн/средн/верх Атм. давл. Влжн Точка росы ВНГО R Сост. почвы Tg s
Напр Скр Прв ур.ст ур.м изм
22:00 +7.6° В 2 - 20 км - ясно 755 761 +0.5 28% -9.6° более 2.5 км - - - -
19:00 +14.6° Ю 2 - более 50 км - облачно с прояснениями 755 761 -0.7 15% -12.1° более 2.5 км 0 - - -
16:00 +16° Ю 2 - более 50 км - переменная облачность 755 761 -1.4 11% -14.4° 1 км - - - -
13:00 +14.9° С 1 - более 50 км - ясно 757 763 -0.8 13% -12.9° более 2.5 км - - - -
10:00 +9.8° штиль 0 - 20 км - ясно 757 764 +0.8 23% -10.4° более 2.5 км - - - -
07:00 -2.8° штиль 0 - 20 км - ясно 757 763 +0.9 63% -8.8° более 2.5 км 0 Замерзшая -6° -
04:00 -2.9° штиль 0 - 10 км - ясно 756 762 +1.2 65% -8.6° более 2.5 км - - - -
01:00 -1.2° штиль 0 - 10 км - ясно 754 761 +1.4 55% -9° более 2.5 км - - - -